Time;durP1;ratioP1;P1;durP2;ratioP2;P2;SDS_P1;SDS_P2;PMS_P1;PMS_P2;Temp;Humidity;BMP_temperature;BMP_pressure;BME280_temperature;BME280_humidity;BME280_pressure;Samples;Min_cycle;Max_cycle;Signal;HPM_P1;HPM_P2
2022/03/10 00:00:38;;;;;;;26.60;13.52;;;;;;;0.67;76.46;101035.16;5589475;31;34278;-62
2022/03/10 00:03:41;;;;;;;28.60;13.57;;;;;;;0.95;76.56;101044.81;5590125;31;34327;-62
2022/03/10 00:06:45;;;;;;;33.50;14.18;;;;;;;0.92;76.79;101046.78;5589679;31;34189;-62
2022/03/10 00:09:48;;;;;;;28.87;14.05;;;;;;;0.95;76.21;101052.66;5590270;31;34134;-62
2022/03/10 00:12:52;;;;;;;27.70;14.05;;;;;;;1.05;75.54;101045.97;5590206;31;34216;-61
2022/03/10 00:15:55;;;;;;;27.73;15.95;;;;;;;0.97;75.79;101045.56;5590367;31;34107;-61
2022/03/10 00:18:57;;;;;;;30.98;16.50;;;;;;;0.94;75.77;101057.97;5590087;31;34683;-62
2022/03/10 00:22:01;;;;;;;31.60;17.42;;;;;;;0.88;76.89;101060.00;5589615;31;33398;-62
2022/03/10 00:25:03;;;;;;;34.35;18.48;;;;;;;0.99;76.68;101069.81;5590083;31;34271;-61
2022/03/10 00:28:06;;;;;;;31.87;18.35;;;;;;;0.91;77.49;101074.66;5589938;31;34923;-61
2022/03/10 00:31:09;;;;;;;34.65;18.77;;;;;;;0.88;77.68;101075.66;5589806;31;34173;-62
2022/03/10 00:34:12;;;;;;;36.15;18.92;;;;;;;0.71;78.46;101077.59;5588977;31;33959;-62
2022/03/10 00:37:15;;;;;;;47.55;20.05;;;;;;;0.61;79.07;101084.25;5589962;31;34908;-62
2022/03/10 00:40:19;;;;;;;38.13;19.65;;;;;;;0.62;79.34;101086.78;5589987;31;34332;-61
2022/03/10 00:43:24;;;;;;;36.95;19.62;;;;;;;0.69;79.96;101100.31;5589909;31;34326;-62
2022/03/10 00:46:27;;;;;;;35.83;17.15;;;;;;;0.69;79.94;101097.72;5589861;31;34299;-62
2022/03/10 00:49:30;;;;;;;33.10;17.15;;;;;;;0.74;80.27;101101.75;5588921;31;33402;-62
2022/03/10 00:52:38;;;;;;;35.10;17.12;;;;;;;0.90;79.87;101106.94;5589247;31;34355;-63
2022/03/10 00:55:41;;;;;;;40.72;18.75;;;;;;;0.96;79.91;101103.97;5589286;31;32696;-62
2022/03/10 00:58:44;;;;;;;31.20;17.35;;;;;;;1.04;80.07;101112.19;5589721;31;34175;-62
2022/03/10 01:01:46;;;;;;;28.80;14.75;;;;;;;1.10;79.79;101116.25;5589096;31;33485;-62
2022/03/10 01:04:50;;;;;;;28.27;14.38;;;;;;;1.19;80.09;101116.53;5588939;31;34433;-62
2022/03/10 01:07:52;;;;;;;28.15;14.55;;;;;;;1.30;79.89;101124.59;5588992;31;33485;-62
2022/03/10 01:10:55;;;;;;;25.67;14.43;;;;;;;1.30;79.65;101126.38;5589685;31;34628;-62
2022/03/10 01:13:58;;;;;;;32.15;16.35;;;;;;;1.25;80.05;101125.78;5589596;31;34487;-62
2022/03/10 01:17:01;;;;;;;29.25;15.20;;;;;;;1.25;80.36;101126.62;5588551;31;34462;-62
2022/03/10 01:20:05;;;;;;;33.38;14.38;;;;;;;1.21;80.54;101125.13;5589541;31;34314;-61
2022/03/10 01:23:11;;;;;;;28.23;15.05;;;;;;;1.20;80.87;101136.53;5589924;31;34869;-61
2022/03/10 01:26:14;;;;;;;28.80;14.52;;;;;;;1.14;81.28;101131.66;5589514;31;34921;-62
2022/03/10 01:29:17;;;;;;;30.77;15.35;;;;;;;1.13;82.06;101135.19;5589069;31;34231;-61
2022/03/10 01:32:20;;;;;;;28.52;15.77;;;;;;;1.08;82.47;101126.78;5589344;31;34356;-62
2022/03/10 01:35:22;;;;;;;28.00;16.42;;;;;;;1.05;84.48;101129.56;5589348;31;34982;-61
2022/03/10 01:38:25;;;;;;;29.00;16.35;;;;;;;1.05;85.49;101133.94;5589528;31;35550;-62
2022/03/10 01:41:28;;;;;;;26.73;15.98;;;;;;;1.28;86.94;101138.69;5589484;31;34149;-61
2022/03/10 01:44:31;;;;;;;30.70;17.17;;;;;;;1.39;88.50;101148.50;5589414;31;34254;-62
2022/03/10 01:47:34;;;;;;;28.33;17.23;;;;;;;1.52;88.13;101146.84;5589344;31;34498;-61
2022/03/10 01:50:37;;;;;;;27.10;15.95;;;;;;;1.55;87.51;101147.47;5589286;31;34255;-61
2022/03/10 01:53:41;;;;;;;34.72;20.35;;;;;;;1.58;86.75;101154.31;5589304;31;34828;-61
2022/03/10 01:56:44;;;;;;;36.20;21.52;;;;;;;1.61;86.21;101157.59;5589235;31;34779;-62
2022/03/10 01:59:46;;;;;;;39.47;22.90;;;;;;;1.68;85.48;101158.91;5588591;31;32703;-62
2022/03/10 02:02:49;;;;;;;35.50;18.87;;;;;;;1.66;85.62;101159.94;5589218;31;34208;-62
2022/03/10 02:05:53;;;;;;;29.27;17.10;;;;;;;1.59;86.41;101164.69;5589111;31;34216;-62
2022/03/10 02:12:18;;;;;;;29.23;17.08;;;;;;;1.61;86.31;101170.66;5588456;31;34787;-62
2022/03/10 02:18:50;;;;;;;26.62;14.25;;;;;;;1.55;88.21;101178.06;5589021;31;34532;-62
2022/03/10 02:21:54;;;;;;;32.55;15.02;;;;;;;1.59;87.88;101179.53;5588901;31;34238;-62
2022/03/10 02:24:57;;;;;;;25.85;16.62;;;;;;;1.58;87.67;101189.16;5588769;31;34951;-62
2022/03/10 02:27:59;;;;;;;27.85;14.57;;;;;;;1.79;87.69;101184.44;5588439;31;34136;-62
2022/03/10 02:31:02;;;;;;;31.27;15.80;;;;;;;1.75;84.87;101185.53;5588600;31;34155;-62
2022/03/10 02:34:04;;;;;;;30.77;15.77;;;;;;;1.87;81.12;101186.56;5575079;31;32692;-61
2022/03/10 02:37:09;;;;;;;32.83;18.10;;;;;;;1.72;82.15;101188.34;5588650;31;34919;-62
2022/03/10 02:40:12;;;;;;;33.60;18.35;;;;;;;1.75;80.62;101199.44;5588667;31;34377;-62
2022/03/10 02:43:17;;;;;;;33.25;18.23;;;;;;;1.77;80.51;101201.97;5587487;31;33777;-63
2022/03/10 02:46:20;;;;;;;35.63;17.98;;;;;;;1.73;80.84;101211.78;5588523;31;34624;-62
2022/03/10 02:49:23;;;;;;;35.70;17.90;;;;;;;1.71;80.83;101213.66;5588720;31;34623;-62
2022/03/10 02:52:26;;;;;;;34.03;17.67;;;;;;;1.74;80.36;101215.25;5588700;31;34462;-63
2022/03/10 02:55:29;;;;;;;37.13;19.45;;;;;;;1.78;79.94;101211.53;5588459;31;35054;-62
2022/03/10 02:58:31;;;;;;;31.27;16.23;;;;;;;1.82;79.58;101214.78;5587655;31;33708;-62
2022/03/10 03:01:34;;;;;;;34.42;16.50;;;;;;;1.75;79.84;101224.75;5588560;31;34301;-62
2022/03/10 03:04:37;;;;;;;33.35;16.77;;;;;;;1.79;79.74;101226.28;5588102;31;34828;-62
2022/03/10 03:07:40;;;;;;;35.25;19.10;;;;;;;1.78;80.16;101229.00;5588393;31;34318;-62
2022/03/10 03:10:43;;;;;;;30.85;16.58;;;;;;;1.70;79.78;101235.50;5587347;31;33442;-62
2022/03/10 03:13:45;;;;;;;31.73;16.80;;;;;;;1.85;79.54;101238.13;5586937;31;33099;-63
2022/03/10 03:16:51;;;;;;;33.85;16.77;;;;;;;1.87;79.75;101246.75;5587841;31;34252;-63
2022/03/10 03:19:55;;;;;;;31.02;17.30;;;;;;;1.87;79.72;101244.13;5587179;31;34228;-62
2022/03/10 03:22:57;;;;;;;33.97;18.65;;;;;;;1.97;78.87;101245.28;5588175;31;34283;-62
2022/03/10 03:26:00;;;;;;;31.33;16.60;;;;;;;1.83;80.22;101245.25;5588099;31;34793;-62
2022/03/10 03:29:03;;;;;;;32.05;16.15;;;;;;;1.71;80.43;101254.66;5586804;31;33482;-62
2022/03/10 03:32:06;;;;;;;34.85;16.95;;;;;;;1.78;80.42;101261.22;5587506;31;34747;-66
2022/03/10 03:35:10;;;;;;;37.92;19.15;;;;;;;1.76;80.46;101263.06;5587142;31;32948;-62
2022/03/10 03:38:13;;;;;;;33.10;16.83;;;;;;;1.77;81.08;101267.37;5587531;31;34223;-62
2022/03/10 03:41:16;;;;;;;32.70;17.77;;;;;;;1.73;82.10;101265.88;5588690;31;34877;-63
2022/03/10 03:44:19;;;;;;;35.10;18.75;;;;;;;1.76;82.27;101273.53;5589904;31;33038;-63
2022/03/10 03:47:21;;;;;;;32.67;16.48;;;;;;;1.85;82.90;101287.84;5590316;31;35010;-63
2022/03/10 03:50:24;;;;;;;40.17;18.98;;;;;;;1.87;83.18;101288.63;5590415;31;34896;-63
2022/03/10 03:53:27;;;;;;;44.53;19.75;;;;;;;1.84;84.41;101294.84;5590350;31;34824;-62
2022/03/10 03:56:30;;;;;;;35.05;18.12;;;;;;;1.84;84.67;101302.69;5590418;31;34295;-63
2022/03/10 03:59:32;;;;;;;34.63;17.92;;;;;;;1.83;85.57;101294.97;5590298;31;35517;-63
2022/03/10 04:02:36;;;;;;;34.03;19.17;;;;;;;1.86;86.86;101307.84;5590268;31;34961;-63
2022/03/10 04:05:39;;;;;;;36.90;19.23;;;;;;;1.85;87.90;101308.78;5590622;31;34234;-63
2022/03/10 04:08:42;;;;;;;39.17;18.45;;;;;;;1.84;87.85;101325.44;5590293;31;35454;-62
2022/03/10 04:11:45;;;;;;;43.15;19.15;;;;;;;1.97;87.13;101321.16;5590321;31;34554;-63
2022/03/10 04:14:50;;;;;;;34.35;20.35;;;;;;;1.95;87.12;101331.72;5590190;31;34439;-62
2022/03/10 04:17:53;;;;;;;38.15;17.75;;;;;;;2.01;86.47;101347.06;5589415;31;34923;-63
2022/03/10 04:20:59;;;;;;;29.87;16.02;;;;;;;1.88;86.48;101346.09;5589129;31;33607;-62
2022/03/10 04:24:02;;;;;;;31.92;16.27;;;;;;;1.85;84.72;101348.87;5589265;31;35041;-62
2022/03/10 04:27:05;;;;;;;26.25;13.85;;;;;;;1.80;85.01;101361.38;5589083;31;33383;-62
2022/03/10 04:30:09;;;;;;;22.62;12.45;;;;;;;1.81;79.54;101364.84;5590061;31;34565;-62
2022/03/10 04:33:12;;;;;;;18.60;9.48;;;;;;;1.86;77.74;101368.87;5590003;31;34916;-62
2022/03/10 04:36:15;;;;;;;16.52;9.70;;;;;;;1.91;73.09;101384.31;5590001;31;34172;-62
2022/03/10 04:39:17;;;;;;;18.20;9.98;;;;;;;1.91;71.91;101392.16;5590037;31;34642;-62
2022/03/10 04:42:20;;;;;;;20.23;9.35;;;;;;;1.85;70.98;101390.72;5590368;31;34862;-62
2022/03/10 04:45:23;;;;;;;14.98;9.15;;;;;;;1.79;69.14;101393.72;5589164;31;33451;-62
2022/03/10 04:48:26;;;;;;;12.85;7.70;;;;;;;1.79;68.45;101396.34;5589304;31;33442;-62
2022/03/10 04:51:29;;;;;;;12.23;6.82;;;;;;;1.80;65.66;101413.69;5589761;31;34637;-62
2022/03/10 04:54:32;;;;;;;10.15;6.07;;;;;;;1.73;64.84;101407.97;5589278;31;33912;-62
2022/03/10 04:57:35;;;;;;;14.15;6.22;;;;;;;1.75;63.99;101411.34;5589260;31;32794;-62
2022/03/10 05:00:38;;;;;;;11.20;6.32;;;;;;;1.71;63.21;101411.59;5590092;31;34157;-62
2022/03/10 05:03:40;;;;;;;10.48;5.95;;;;;;;1.72;63.20;101411.53;5589116;31;32822;-62
2022/03/10 05:06:43;;;;;;;9.73;6.15;;;;;;;1.73;62.24;101412.38;5588683;31;34369;-62
2022/03/10 05:09:45;;;;;;;9.18;5.62;;;;;;;1.70;62.04;101409.91;5588792;31;33508;-62
2022/03/10 05:12:54;;;;;;;10.48;6.37;;;;;;;1.65;61.66;101417.16;5589906;31;34884;-61
2022/03/10 05:15:56;;;;;;;9.50;5.87;;;;;;;1.68;61.81;101417.84;5588985;31;33348;-63
2022/03/10 05:18:59;;;;;;;11.82;6.30;;;;;;;1.70;61.19;101422.97;5589677;31;34297;-63
2022/03/10 05:22:03;;;;;;;10.02;5.40;;;;;;;1.73;61.40;101436.75;5589013;31;33272;-62
2022/03/10 05:25:06;;;;;;;9.13;5.30;;;;;;;1.77;60.62;101440.03;5588970;31;34186;-62
2022/03/10 05:28:14;;;;;;;10.38;5.70;;;;;;;1.68;60.34;101438.78;5588866;31;32701;-62
2022/03/10 05:31:17;;;;;;;10.02;5.47;;;;;;;1.65;60.48;101449.41;5589338;31;34197;-62
2022/03/10 05:34:20;;;;;;;9.10;5.28;;;;;;;1.66;59.90;101463.31;5588825;31;32947;-62
2022/03/10 05:37:24;;;;;;;11.63;5.55;;;;;;;1.64;59.83;101455.59;5590108;31;34364;-62
2022/03/10 05:40:27;;;;;;;7.80;4.65;;;;;;;1.67;59.78;101457.16;5589663;31;34212;-62
2022/03/10 05:43:32;;;;;;;14.35;4.90;;;;;;;1.75;59.77;101457.56;5589446;31;34230;-62
2022/03/10 05:46:35;;;;;;;12.55;5.12;;;;;;;1.68;59.35;101471.94;5588555;31;32733;-63
2022/03/10 05:49:38;;;;;;;7.90;5.07;;;;;;;1.66;59.03;101477.25;5588637;31;34919;-62
2022/03/10 05:52:41;;;;;;;10.60;5.32;;;;;;;1.65;59.05;101480.78;5589306;31;34192;-63
2022/03/10 05:55:45;;;;;;;10.82;6.18;;;;;;;1.70;59.29;101481.37;5589304;31;34208;-62
2022/03/10 05:58:47;;;;;;;9.50;5.32;;;;;;;1.68;59.24;101482.41;5588559;31;32707;-62
2022/03/10 06:01:50;;;;;;;9.57;5.50;;;;;;;1.73;59.12;101489.06;5589007;31;34260;-62
2022/03/10 06:04:58;;;;;;;8.07;4.97;;;;;;;1.76;58.89;101493.28;5587394;31;34059;-62
2022/03/10 06:08:01;;;;;;;11.48;5.03;;;;;;;1.72;58.84;101491.75;5589097;31;34193;-62
2022/03/10 06:11:04;;;;;;;10.32;5.32;;;;;;;1.76;58.72;101498.50;5575167;31;32465;-62
2022/03/10 06:14:07;;;;;;;8.52;4.53;;;;;;;1.77;58.49;101500.22;5588731;31;34199;-62
2022/03/10 06:17:14;;;;;;;7.55;4.25;;;;;;;1.83;58.67;101505.09;5589108;31;34480;-62
2022/03/10 06:20:17;;;;;;;8.75;4.32;;;;;;;1.83;58.73;101514.72;5588337;31;33107;-62
2022/03/10 06:23:20;;;;;;;9.32;4.85;;;;;;;1.94;59.20;101504.50;5588586;31;34890;-62
2022/03/10 06:26:22;;;;;;;11.38;5.12;;;;;;;1.88;58.77;101517.94;5587815;31;32851;-62
2022/03/10 06:29:25;;;;;;;9.02;4.57;;;;;;;2.02;59.23;101529.34;5587451;31;32885;-62
2022/03/10 06:32:28;;;;;;;12.63;5.82;;;;;;;2.13;58.49;101528.75;5587460;31;34236;-62
2022/03/10 06:35:30;;;;;;;10.25;5.35;;;;;;;1.94;59.08;101525.44;5587700;31;32915;-62
2022/03/10 06:38:36;;;;;;;9.00;5.07;;;;;;;1.89;60.35;101536.16;5588014;31;34265;-61
2022/03/10 06:41:39;;;;;;;16.65;5.65;;;;;;;1.93;60.27;101548.16;5588382;31;34531;-62
2022/03/10 06:44:42;;;;;;;8.80;5.40;;;;;;;1.97;59.64;101540.97;5574635;31;32952;-62
2022/03/10 06:47:44;;;;;;;13.80;5.95;;;;;;;1.91;59.39;101547.38;5587496;31;32990;-63
2022/03/10 06:50:50;;;;;;;12.18;4.97;;;;;;;1.90;59.30;101552.69;5587359;31;32681;-63
2022/03/10 06:53:54;;;;;;;17.65;7.35;;;;;;;1.87;58.89;101555.50;5587976;31;34415;-63
2022/03/10 06:57:01;;;;;;;12.20;5.70;;;;;;;1.95;58.47;101563.75;5586888;31;32778;-62
2022/03/10 07:00:05;;;;;;;8.85;4.70;;;;;;;2.01;58.07;101561.66;5587263;31;33008;-63
2022/03/10 07:03:07;;;;;;;9.93;5.32;;;;;;;2.14;56.76;101561.81;5587196;31;32703;-63
2022/03/10 07:06:11;;;;;;;9.82;5.30;;;;;;;2.23;56.53;101565.72;5587486;31;34666;-62
2022/03/10 07:09:13;;;;;;;13.80;5.78;;;;;;;2.31;55.77;101566.13;5587043;31;32917;-62
2022/03/10 07:12:16;;;;;;;14.30;5.90;;;;;;;2.49;55.34;101567.69;5587005;31;33887;-62
2022/03/10 07:15:19;;;;;;;9.18;5.18;;;;;;;2.54;54.48;101574.38;5587977;31;34308;-62
2022/03/10 07:18:22;;;;;;;12.35;5.53;;;;;;;2.22;54.66;101574.50;5590705;31;34186;-62
2022/03/10 07:21:24;;;;;;;10.55;5.12;;;;;;;2.03;54.93;101572.87;5589485;31;32690;-62
2022/03/10 07:24:30;;;;;;;8.75;4.72;;;;;;;1.98;54.50;101580.16;5589511;31;34158;-62
2022/03/10 07:27:35;;;;;;;9.55;5.07;;;;;;;2.01;54.54;101586.97;5589467;31;33343;-62
2022/03/10 07:30:38;;;;;;;10.68;5.45;;;;;;;2.07;54.91;101589.28;5590353;31;35618;-62
2022/03/10 07:33:41;;;;;;;12.02;5.43;;;;;;;2.21;54.43;101594.59;5590334;31;34241;-62
2022/03/10 07:36:44;;;;;;;12.50;5.55;;;;;;;2.52;54.33;101593.69;5589395;31;33544;-62
2022/03/10 07:39:47;;;;;;;10.68;5.00;;;;;;;3.00;53.10;101593.50;5589210;31;34562;-62
2022/03/10 07:42:50;;;;;;;8.30;4.93;;;;;;;2.97;51.44;101591.06;5590169;31;34165;-62
2022/03/10 07:45:52;;;;;;;8.77;4.57;;;;;;;2.92;51.46;101598.34;5589682;31;32844;-62
2022/03/10 07:48:55;;;;;;;8.57;4.37;;;;;;;3.34;50.08;101604.66;5590413;31;34839;-62
2022/03/10 07:51:59;;;;;;;7.70;4.87;;;;;;;4.87;46.53;101600.16;5589417;31;33502;-62
2022/03/10 07:55:03;;;;;;;8.40;4.82;;;;;;;5.22;45.21;101601.28;5590216;31;34184;-63
2022/03/10 07:58:07;;;;;;;8.20;4.80;;;;;;;5.32;44.26;101595.38;5590556;31;34338;-62
2022/03/10 08:01:11;;;;;;;7.62;4.65;;;;;;;6.11;42.40;101593.31;5590096;31;35080;-62
2022/03/10 08:04:14;;;;;;;10.15;4.43;;;;;;;7.35;40.14;101577.91;5589375;31;33713;-63
2022/03/10 08:07:17;;;;;;;8.18;4.60;;;;;;;9.21;36.12;101587.47;5589875;31;34104;-62
2022/03/10 08:10:28;;;;;;;7.72;5.05;;;;;;;6.43;41.22;101580.47;5590262;31;34266;-63
2022/03/10 08:13:31;;;;;;;7.82;4.62;;;;;;;8.19;38.10;101588.78;5590109;31;34446;-63
2022/03/10 08:16:34;;;;;;;8.35;4.80;;;;;;;6.65;40.46;101580.56;5589882;31;34349;-63
2022/03/10 08:19:37;;;;;;;7.35;4.47;;;;;;;8.40;37.03;101585.44;5589247;31;33601;-63
2022/03/10 08:22:41;;;;;;;9.43;4.45;;;;;;;7.18;38.81;101579.19;5589021;31;32696;-62
2022/03/10 08:25:47;;;;;;;9.90;4.82;;;;;;;8.27;37.01;101594.34;5589037;31;33386;-63
2022/03/10 08:28:52;;;;;;;10.45;4.78;;;;;;;10.04;34.76;101585.50;5589052;31;34299;-62
2022/03/10 08:31:55;;;;;;;7.10;4.15;;;;;;;7.35;37.15;101588.47;5589700;31;34475;-61
2022/03/10 08:34:58;;;;;;;6.70;4.22;;;;;;;6.54;37.97;101585.78;5589245;31;33542;-62
2022/03/10 08:38:01;;;;;;;9.65;4.00;;;;;;;7.37;35.58;101592.66;5589245;31;33126;-62
2022/03/10 08:41:04;;;;;;;9.43;4.05;;;;;;;8.44;32.07;101584.22;5588763;31;33913;-62
2022/03/10 08:44:06;;;;;;;6.62;3.83;;;;;;;7.25;33.65;101588.31;5589156;31;33649;-62
2022/03/10 08:47:09;;;;;;;9.95;4.00;;;;;;;7.53;32.52;101589.69;5589002;31;34283;-62
2022/03/10 08:50:12;;;;;;;8.98;4.18;;;;;;;7.56;33.48;101591.22;5576074;31;33812;-62
2022/03/10 08:53:17;;;;;;;8.57;4.10;;;;;;;8.19;31.97;101591.44;5589593;31;34525;-62
2022/03/10 08:56:20;;;;;;;15.82;4.65;;;;;;;7.46;32.33;101591.09;5589643;31;34181;-61
2022/03/10 08:59:25;;;;;;;5.45;3.53;;;;;;;6.10;34.79;101603.00;5588533;31;33178;-62
2022/03/10 09:02:49;;;;;;;7.03;3.60;;;;;;;5.47;34.85;101599.59;5589092;31;34247;-62
2022/03/10 09:06:09;;;;;;;13.57;3.37;;;;;;;4.99;36.31;101607.19;5589547;31;34240;-62
2022/03/10 09:09:12;;;;;;;6.35;3.80;;;;;;;4.89;36.71;101610.56;5588691;31;33212;-62
2022/03/10 09:12:15;;;;;;;5.50;3.17;;;;;;;4.66;37.01;101607.66;5589613;31;34797;-62
2022/03/10 09:15:18;;;;;;;8.68;3.75;;;;;;;4.16;36.53;101608.28;5589087;31;33327;-62
2022/03/10 09:18:20;;;;;;;11.77;3.90;;;;;;;3.99;39.46;101610.25;5588936;31;33135;-62
2022/03/10 09:21:24;;;;;;;10.38;3.15;;;;;;;4.12;39.08;101617.25;5588559;31;33059;-62
2022/03/10 09:24:26;;;;;;;7.57;3.28;;;;;;;3.98;37.71;101619.06;5589227;31;34280;-62
2022/03/10 09:27:29;;;;;;;6.10;3.12;;;;;;;4.02;39.65;101615.34;5588233;31;33405;-62
2022/03/10 09:30:32;;;;;;;7.20;3.60;;;;;;;3.75;38.73;101608.22;5588776;31;33420;-62
2022/03/10 09:33:35;;;;;;;6.37;3.58;;;;;;;3.99;39.11;101613.72;5588019;31;32666;-62
2022/03/10 09:36:37;;;;;;;6.40;3.28;;;;;;;3.78;37.67;101615.88;5588534;31;32691;-61
2022/03/10 09:39:40;;;;;;;11.57;3.40;;;;;;;4.12;38.97;101611.16;5587401;31;32693;-62
2022/03/10 09:42:47;;;;;;;15.85;3.55;;;;;;;4.47;36.54;101614.19;5588524;31;33134;-61
2022/03/10 09:45:50;;;;;;;6.70;3.15;;;;;;;4.29;35.47;101626.72;5575235;31;32672;-62
2022/03/10 09:48:54;;;;;;;6.55;3.25;;;;;;;4.20;34.37;101628.16;5589122;31;34262;-62
2022/03/10 09:51:57;;;;;;;7.05;3.30;;;;;;;4.18;36.32;101622.12;5588562;31;34837;-62
2022/03/10 09:55:00;;;;;;;6.70;3.58;;;;;;;3.97;34.76;101615.59;5588752;31;34936;-62
2022/03/10 09:58:05;;;;;;;5.62;3.22;;;;;;;4.02;35.99;101620.59;5588213;31;32686;-61
2022/03/10 10:01:08;;;;;;;7.22;3.42;;;;;;;4.19;35.17;101620.37;5588081;31;33790;-62
2022/03/10 10:04:11;;;;;;;5.28;2.85;;;;;;;4.51;34.75;101613.03;5587722;31;33557;-62
2022/03/10 10:07:22;;;;;;;5.47;3.00;;;;;;;4.21;35.63;101631.62;5587898;31;33710;-61
2022/03/10 10:10:29;;;;;;;7.68;3.53;;;;;;;4.45;35.08;101626.59;5589277;31;34235;-62
2022/03/10 10:13:42;;;;;;;12.00;3.40;;;;;;;4.37;36.16;101622.66;5589120;31;34445;-61
2022/03/10 10:16:47;;;;;;;7.35;3.50;;;;;;;4.12;35.42;101627.78;5588890;31;34889;-62
2022/03/10 10:19:54;;;;;;;6.22;3.47;;;;;;;4.28;34.26;101630.28;5588135;31;33133;-62
2022/03/10 10:23:26;;;;;;;8.97;4.20;;;;;;;4.40;35.66;101626.91;5587777;31;32712;-62
2022/03/10 10:26:31;;;;;;;7.78;3.50;;;;;;;4.72;35.77;101623.03;5588471;31;34946;-63
2022/03/10 10:29:34;;;;;;;8.10;3.80;;;;;;;4.50;35.71;101628.00;5587931;31;33783;-62
2022/03/10 10:32:42;;;;;;;9.50;3.90;;;;;;;4.45;35.85;101626.59;5587823;31;32836;-62
2022/03/10 10:35:45;;;;;;;7.45;3.62;;;;;;;4.46;36.54;101628.25;5587873;31;32931;-61
2022/03/10 10:38:48;;;;;;;8.80;3.50;;;;;;;4.35;36.06;101631.59;5587525;31;33582;-61
2022/03/10 10:41:53;;;;;;;7.30;3.50;;;;;;;4.33;35.55;101633.47;5589807;31;32925;-60
2022/03/10 10:45:01;;;;;;;6.43;3.80;;;;;;;4.01;35.86;101632.03;5589501;31;33505;-63
2022/03/10 10:48:09;;;;;;;5.43;3.33;;;;;;;4.39;35.43;101625.19;5590487;31;34471;-61
2022/03/10 10:51:29;;;;;;;8.50;3.92;;;;;;;3.99;36.27;101631.25;5589392;31;34060;-62
2022/03/10 10:54:32;;;;;;;6.37;3.28;;;;;;;4.27;35.53;101631.22;5590774;31;34845;-62
2022/03/10 10:57:36;;;;;;;6.62;3.30;;;;;;;4.62;34.95;101634.22;5563834;31;33782;-61
2022/03/10 11:00:44;;;;;;;6.20;3.05;;;;;;;4.73;33.74;101631.75;5590777;31;34836;-61
2022/03/10 11:03:47;;;;;;;6.20;3.40;;;;;;;4.83;34.28;101627.59;5589731;31;33198;-62
2022/03/10 11:06:50;;;;;;;4.93;2.70;;;;;;;4.88;32.69;101632.53;5590696;31;34306;-62
2022/03/10 11:09:53;;;;;;;4.87;2.67;;;;;;;4.71;32.57;101626.59;5589738;31;33658;-62
2022/03/10 11:12:56;;;;;;;4.07;2.58;;;;;;;5.02;32.93;101632.47;5589900;31;32616;-62
2022/03/10 11:15:59;;;;;;;4.95;2.95;;;;;;;5.78;31.67;101633.37;5590330;31;34322;-62
2022/03/10 11:19:02;;;;;;;3.15;2.33;;;;;;;6.65;29.71;101620.13;5590245;31;34190;-62
2022/03/10 11:22:35;;;;;;;5.28;3.03;;;;;;;9.95;25.54;101615.47;5590035;31;34278;-62
2022/03/10 11:25:54;;;;;;;8.23;3.00;;;;;;;13.03;22.57;101615.63;5590602;31;34824;-62
2022/03/10 11:28:59;;;;;;;8.85;3.17;;;;;;;16.09;19.57;101606.75;5589372;31;33801;-63
2022/03/10 11:32:06;;;;;;;9.63;3.47;;;;;;;13.51;20.80;101609.06;5590355;31;34295;-63
2022/03/10 11:35:16;;;;;;;10.27;3.47;;;;;;;14.53;20.10;101612.53;5576502;31;32943;-62
2022/03/10 11:38:19;;;;;;;5.90;3.40;;;;;;;12.33;21.97;101606.66;5589533;31;33943;-62
2022/03/10 11:41:53;;;;;;;6.20;3.12;;;;;;;13.09;21.42;101593.72;5589244;31;33804;-62
2022/03/10 11:45:05;;;;;;;10.02;3.50;;;;;;;13.31;21.40;101605.75;5589220;31;33864;-63
2022/03/10 11:48:23;;;;;;;5.03;3.35;;;;;;;14.67;19.52;101598.53;5589103;31;34002;-63
2022/03/10 11:51:47;;;;;;;4.75;2.90;;;;;;;15.45;19.20;101596.19;5589398;31;32850;-63
2022/03/10 11:55:07;;;;;;;5.78;3.15;;;;;;;13.53;20.75;101591.91;5589347;31;32677;-63
2022/03/10 11:58:12;;;;;;;5.10;3.03;;;;;;;13.45;20.49;101597.19;5588846;31;34557;-63
2022/03/10 12:01:19;;;;;;;5.68;3.47;;;;;;;16.56;18.24;101597.78;5588158;31;34343;-63
2022/03/10 12:04:33;;;;;;;6.95;2.92;;;;;;;13.13;20.78;101587.13;5589952;31;34179;-63
2022/03/10 12:07:40;;;;;;;4.32;2.90;;;;;;;12.29;20.99;101589.31;5589032;31;33998;-63
2022/03/10 12:10:43;;;;;;;6.40;2.78;;;;;;;9.96;22.86;101591.50;5589295;31;33674;-64
2022/03/10 12:13:46;;;;;;;5.18;2.80;;;;;;;12.16;21.22;101592.31;5589481;31;32588;-63
2022/03/10 12:16:49;;;;;;;11.52;3.05;;;;;;;12.92;20.53;101597.25;5589145;31;33020;-64
2022/03/10 12:20:11;;;;;;;6.93;3.03;;;;;;;15.77;18.20;101584.62;5589301;31;34300;-64
2022/03/10 12:23:19;;;;;;;;;;;;;;;14.24;19.00;101589.72;5589225;31;33365;-63
2022/03/10 12:26:33;;;;;;;5.90;3.28;;;;;;;14.15;19.71;101587.19;5589516;31;35156;-64
2022/03/10 12:29:36;;;;;;;4.43;3.00;;;;;;;17.77;16.76;101585.19;5589933;31;35012;-64
2022/03/10 12:32:45;;;;;;;6.47;3.17;;;;;;;19.71;15.23;101578.69;5589553;31;34182;-64
2022/03/10 12:35:57;;;;;;;10.48;3.20;;;;;;;15.25;17.86;101573.50;5589301;31;32952;-63
2022/03/10 12:39:07;;;;;;;4.40;2.75;;;;;;;14.88;19.00;101582.03;5589312;31;34873;-63
2022/03/10 12:42:11;;;;;;;5.20;3.25;;;;;;;13.59;18.98;101580.62;5589070;31;35029;-64
2022/03/10 12:45:18;;;;;;;8.27;3.20;;;;;;;16.28;17.18;101573.34;5589667;31;34862;-64
2022/03/10 12:48:29;;;;;;;4.85;3.03;;;;;;;19.74;14.90;101579.16;5589257;31;32684;-64
2022/03/10 12:51:39;;;;;;;4.47;2.97;;;;;;;15.53;18.71;101581.00;5588859;31;32596;-64
2022/03/10 12:54:46;;;;;;;4.60;2.87;;;;;;;14.16;19.72;101583.53;5588827;31;34879;-63
2022/03/10 12:57:48;;;;;;;5.20;2.58;;;;;;;13.85;19.38;101572.56;5589516;31;34613;-63
2022/03/10 13:00:51;;;;;;;5.75;3.37;;;;;;;12.75;20.45;101572.28;5588718;31;32735;-64
2022/03/10 13:03:56;;;;;;;10.20;3.00;;;;;;;14.53;19.13;101572.47;5588653;31;32640;-64
2022/03/10 13:06:59;;;;;;;4.82;3.05;;;;;;;14.42;19.12;101580.81;5588498;31;34172;-63
2022/03/10 13:10:09;;;;;;;6.22;2.65;;;;;;;12.51;20.55;101575.56;5589322;31;34623;-63
2022/03/10 13:13:28;;;;;;;4.05;2.78;;;;;;;13.75;19.50;101575.34;5589243;31;35021;-63
2022/03/10 13:16:37;;;;;;;4.43;2.78;;;;;;;15.53;17.00;101574.81;5588625;31;32775;-64
2022/03/10 13:19:41;;;;;;;3.72;2.47;;;;;;;16.67;16.71;101577.81;5589861;31;34901;-63
2022/03/10 13:22:48;;;;;;;4.43;2.67;;;;;;;12.34;20.34;101584.38;5589937;31;34316;-63
2022/03/10 13:25:51;;;;;;;4.07;2.70;;;;;;;13.69;19.70;101586.66;5588467;31;34123;-63
2022/03/10 13:28:54;;;;;;;4.10;2.62;;;;;;;13.57;18.99;101587.09;5588672;31;32710;-63
2022/03/10 13:32:02;;;;;;;5.35;2.65;;;;;;;14.14;19.47;101581.00;5588065;31;33488;-62
2022/03/10 13:35:06;;;;;;;6.25;2.80;;;;;;;11.75;21.22;101576.84;5588853;31;34612;-63
2022/03/10 13:38:18;;;;;;;7.60;2.55;;;;;;;10.61;22.73;101576.84;5588799;31;32833;-62
2022/03/10 13:41:20;;;;;;;4.22;2.35;;;;;;;10.77;22.81;101582.44;5589177;31;34896;-63
2022/03/10 13:44:27;;;;;;;3.55;2.45;;;;;;;9.93;22.37;101591.75;5588572;31;33379;-62
2022/03/10 13:48:06;;;;;;;8.00;2.55;;;;;;;9.36;23.26;101587.03;5589067;31;34264;-62
2022/03/10 13:51:10;;;;;;;8.50;2.67;;;;;;;10.24;22.86;101587.28;5509499;32;34327;-63
2022/03/10 13:54:14;;;;;;;8.43;2.80;;;;;;;10.50;22.33;101582.31;5509686;32;34161;-62
2022/03/10 13:57:19;;;;;;;8.40;2.95;;;;;;;10.59;21.75;101586.78;5509806;32;35583;-62
2022/03/10 14:00:31;;;;;;;2.95;2.22;;;;;;;11.53;20.81;101583.31;5509868;32;34911;-62
2022/03/10 14:03:41;;;;;;;4.28;2.42;;;;;;;12.15;20.37;101593.28;5509563;32;34264;-62
2022/03/10 14:06:46;;;;;;;4.78;2.20;;;;;;;14.16;18.28;101584.38;5496697;32;34411;-63
2022/03/10 14:09:51;;;;;;;4.35;2.67;;;;;;;13.71;17.68;101582.00;5509573;32;34825;-63
2022/03/10 14:12:53;;;;;;;5.93;2.92;;;;;;;14.45;17.43;101575.97;5496438;32;32878;-62
2022/03/10 14:15:58;;;;;;;4.15;2.65;;;;;;;13.14;18.33;101575.47;5509381;32;34172;-62
2022/03/10 14:19:04;;;;;;;5.00;2.58;;;;;;;14.04;17.50;101574.16;5509203;32;34683;-62
2022/03/10 14:22:19;;;;;;;6.18;2.53;;;;;;;12.79;18.46;101586.13;5509287;32;34519;-62
2022/03/10 14:25:37;;;;;;;4.10;2.28;;;;;;;12.29;18.62;101588.47;5560448;31;34805;-62